CYXR

Earlton (Timiskaming Regional) Airport

Earlton, Ontario, Canada
METAR CYXR 172104Z AUTO 20020G26KT 9SM CLR M02/M10 A2973 RMK ICG SLP087
Observed Flight Rules
Feb-17 @ 21:04 UTC (33 minutes ago) Visual Flight Rules
Wind Visibility Clouds
200° at 20 knots
 Gusting to 26 knots
9 miles
  • Clear skies
Temperatures Readings
Current -2°C / 28°F
Dewpoint -10°C / 14°F
Humidity 55%
Altimeter 29.73" Hg
Pressure 1008.7 hPa
Elevation 243
METAR CYXR 172104Z AUTO 20020G26KT 9SM CLR M02/M10 A2973 RMK ICG SLP087
Observed Flight Rules
Feb-17 @ 21:04 UTC
(33 minutes ago)
VFR
Wind Visibility
200° at 20 knots
 Gusting to 26 knots
9 miles
Clouds
  • Clear skies
Temperature Dewpoint
-2°C / 28°F -10°C / 14°F
Humidity Altimeter Pressure
55% 29.73" Hg 1008.7 hPa